Time;durP1;ratioP1;P1;durP2;ratioP2;P2;SDS_P1;SDS_P2;PMS_P1;PMS_P2;Temp;Humidity;BMP_temperature;BMP_pressure;BME280_temperature;BME280_humidity;BME280_pressure;Samples;Min_cycle;Max_cycle;Signal;HPM_P1;HPM_P2
2023/10/26 00:00:45;;;;;;;15.10;9.75;;;;;;;9.28;100.00;99393.63;5054390;28;20076;-46
2023/10/26 00:03:14;;;;;;;13.50;9.93;;;;;;;9.25;100.00;99393.84;5054705;28;20041;-47
2023/10/26 00:05:43;;;;;;;13.55;8.63;;;;;;;9.21;100.00;99408.19;5053245;28;20442;-48
2023/10/26 00:08:12;;;;;;;14.48;9.77;;;;;;;9.23;100.00;99413.31;5054499;28;20049;-47
2023/10/26 00:10:41;;;;;;;13.13;9.18;;;;;;;9.20;100.00;99400.44;5054611;28;20041;-50
2023/10/26 00:13:10;;;;;;;14.52;9.60;;;;;;;9.18;100.00;99416.31;5054506;28;20048;-48
2023/10/26 00:15:39;;;;;;;13.65;9.80;;;;;;;9.18;100.00;99413.69;5054595;28;20114;-49
2023/10/26 00:18:21;;;;;;;13.53;9.83;;;;;;;9.19;100.00;99412.75;5053310;28;20077;-54
2023/10/26 00:20:56;;;;;;;12.13;8.60;;;;;;;9.18;100.00;99411.06;5054480;28;20080;-54
2023/10/26 00:23:24;;;;;;;13.02;8.98;;;;;;;9.18;100.00;99407.63;5054525;28;20539;-54
2023/10/26 00:25:53;;;;;;;13.93;9.32;;;;;;;9.15;100.00;99408.72;5054378;28;20067;-54
2023/10/26 00:28:23;;;;;;;13.48;8.93;;;;;;;9.11;100.00;99408.13;5051575;28;20523;-54
2023/10/26 00:30:52;;;;;;;14.68;8.60;;;;;;;9.10;100.00;99416.94;5051775;28;20048;-53
2023/10/26 00:33:20;;;;;;;13.23;8.95;;;;;;;9.10;100.00;99416.13;5054341;28;20499;-55
2023/10/26 00:35:48;;;;;;;13.05;9.25;;;;;;;9.07;100.00;99414.56;5054243;28;20056;-54
2023/10/26 00:38:16;;;;;;;14.98;8.82;;;;;;;9.06;100.00;99419.94;5054046;28;20052;-56
2023/10/26 00:40:44;;;;;;;12.85;8.25;;;;;;;9.03;100.00;99423.66;5053456;28;20128;-54
2023/10/26 00:43:25;;;;;;;14.43;9.38;;;;;;;8.94;100.00;99422.63;5050901;28;20041;-53
2023/10/26 00:45:54;;;;;;;13.00;8.73;;;;;;;8.89;100.00;99434.41;5051711;28;20106;-54
2023/10/26 00:48:24;;;;;;;14.43;8.93;;;;;;;8.80;100.00;99434.19;5053968;28;20045;-54
2023/10/26 00:50:54;;;;;;;11.73;8.60;;;;;;;8.76;100.00;99430.16;5053762;28;20040;-55
2023/10/26 00:53:22;;;;;;;13.13;8.52;;;;;;;8.75;100.00;99443.38;5053684;28;20119;-55
2023/10/26 00:55:53;;;;;;;13.18;8.50;;;;;;;8.72;100.00;99443.63;5054035;28;20045;-54
2023/10/26 00:58:25;;;;;;;11.82;8.20;;;;;;;8.68;100.00;99442.22;5053778;28;20051;-54
2023/10/26 01:00:55;;;;;;;14.90;8.48;;;;;;;8.63;100.00;99450.44;5053477;28;20099;-56
2023/10/26 01:03:25;;;;;;;12.60;8.30;;;;;;;8.58;100.00;99449.97;5053792;28;20060;-54
2023/10/26 01:05:53;;;;;;;14.48;8.40;;;;;;;8.49;100.00;99458.56;5053538;28;20099;-46
2023/10/26 01:08:23;;;;;;;11.43;8.55;;;;;;;8.46;100.00;99455.19;5053584;28;20052;-49
2023/10/26 01:10:52;;;;;;;15.48;9.48;;;;;;;8.40;100.00;99454.84;5053404;28;20057;-45
2023/10/26 01:13:20;;;;;;;15.73;10.50;;;;;;;8.36;100.00;99456.84;5053327;28;20041;-47
2023/10/26 01:15:49;;;;;;;15.18;11.07;;;;;;;8.34;100.00;99464.00;5053544;28;20072;-47
2023/10/26 01:18:18;;;;;;;15.80;11.18;;;;;;;8.32;100.00;99463.28;5053273;28;20427;-45
2023/10/26 01:20:47;;;;;;;17.60;12.02;;;;;;;8.29;100.00;99469.59;5053179;28;20144;-49
2023/10/26 01:23:16;;;;;;;19.70;12.65;;;;;;;8.26;100.00;99469.84;5053115;28;20454;-49
2023/10/26 01:25:52;;;;;;;17.35;12.30;;;;;;;8.27;100.00;99471.47;5053189;28;20395;-48
2023/10/26 01:28:20;;;;;;;15.85;12.10;;;;;;;8.22;100.00;99483.28;5053072;28;20127;-45
2023/10/26 01:30:48;;;;;;;18.48;12.77;;;;;;;8.21;100.00;99492.94;5053095;28;20531;-46
2023/10/26 01:33:16;;;;;;;18.73;14.05;;;;;;;8.17;100.00;99496.72;5052831;28;20041;-46
2023/10/26 01:35:45;;;;;;;19.95;12.55;;;;;;;8.20;100.00;99500.91;5053093;28;20049;-47
2023/10/26 01:38:15;;;;;;;22.08;13.18;;;;;;;8.21;100.00;99495.56;5052811;28;20073;-45
2023/10/26 01:40:44;;;;;;;18.83;13.85;;;;;;;8.21;100.00;99497.34;5052906;28;20567;-47
2023/10/26 01:43:12;;;;;;;20.10;13.68;;;;;;;8.25;100.00;99499.59;5052838;28;20057;-46
2023/10/26 01:45:40;;;;;;;19.58;12.43;;;;;;;8.25;100.00;99510.06;5052910;28;20110;-50
2023/10/26 01:48:09;;;;;;;18.08;12.65;;;;;;;8.24;100.00;99502.34;5052509;28;20091;-48
2023/10/26 01:50:38;;;;;;;17.75;13.07;;;;;;;8.25;100.00;99507.47;5052846;28;20049;-46
2023/10/26 01:53:07;;;;;;;16.40;12.27;;;;;;;8.26;100.00;99503.03;5051484;28;20045;-49
2023/10/26 01:55:36;;;;;;;18.05;12.30;;;;;;;8.23;100.00;99496.25;5052394;28;20041;-47
2023/10/26 01:58:04;;;;;;;18.02;12.07;;;;;;;8.24;100.00;99497.09;5052377;28;20414;-47
2023/10/26 02:00:33;;;;;;;16.20;11.20;;;;;;;8.22;100.00;99504.22;5052356;28;20061;-47
2023/10/26 02:03:01;;;;;;;17.77;12.35;;;;;;;8.20;100.00;99506.97;5052501;28;20184;-49
2023/10/26 02:05:29;;;;;;;15.60;11.52;;;;;;;8.22;100.00;99507.69;5052278;28;20053;-48
2023/10/26 02:07:58;;;;;;;18.15;13.02;;;;;;;8.22;100.00;99505.09;5051053;28;20057;-49
2023/10/26 02:10:29;;;;;;;17.88;12.38;;;;;;;8.23;100.00;99496.25;5052101;28;20129;-48
2023/10/26 02:12:59;;;;;;;22.50;13.02;;;;;;;8.24;100.00;99491.88;5052235;28;20102;-47
2023/10/26 02:15:27;;;;;;;19.40;14.20;;;;;;;8.26;100.00;99487.31;5052227;28;20049;-47
2023/10/26 02:17:55;;;;;;;21.73;13.50;;;;;;;8.28;100.00;99486.25;5052298;28;20095;-48
2023/10/26 02:20:24;;;;;;;19.73;14.52;;;;;;;8.31;100.00;99494.84;5052262;28;20053;-49
2023/10/26 02:22:52;;;;;;;19.75;14.23;;;;;;;8.29;100.00;99502.81;5050800;28;20057;-46
2023/10/26 02:25:21;;;;;;;18.88;14.07;;;;;;;8.28;100.00;99496.72;5051948;28;20049;-47
2023/10/26 02:27:49;;;;;;;22.13;14.43;;;;;;;8.32;100.00;99499.09;5051765;28;20127;-47
2023/10/26 02:30:19;;;;;;;21.30;14.85;;;;;;;8.32;100.00;99494.72;5052017;28;20051;-47
2023/10/26 02:32:47;;;;;;;20.88;14.82;;;;;;;8.33;100.00;99493.78;5051800;28;20049;-46
2023/10/26 02:35:16;;;;;;;24.38;15.93;;;;;;;8.34;100.00;99497.22;5051949;28;20045;-48
2023/10/26 02:37:44;;;;;;;23.02;16.48;;;;;;;8.34;100.00;99492.81;5052223;28;20045;-46
2023/10/26 02:40:12;;;;;;;26.90;17.40;;;;;;;8.29;100.00;99485.31;5051870;28;20044;-54
2023/10/26 02:42:41;;;;;;;22.05;16.25;;;;;;;8.33;100.00;99485.06;5052044;28;20124;-54
2023/10/26 02:45:10;;;;;;;22.33;15.02;;;;;;;8.32;100.00;99480.78;5051819;28;20040;-54
2023/10/26 02:47:39;;;;;;;23.67;16.17;;;;;;;8.29;100.00;99480.06;5049554;28;20111;-55
2023/10/26 02:50:10;;;;;;;22.35;15.50;;;;;;;8.29;100.00;99479.25;5048389;28;20111;-54
2023/10/26 02:52:39;;;;;;;22.63;15.45;;;;;;;8.30;100.00;99488.75;5048517;28;20084;-54
2023/10/26 02:55:08;;;;;;;20.73;14.80;;;;;;;8.29;100.00;99484.50;5048940;28;20073;-56
2023/10/26 02:57:36;;;;;;;23.20;16.05;;;;;;;8.25;100.00;99491.75;5050358;28;20056;-54
2023/10/26 03:00:06;;;;;;;21.08;14.77;;;;;;;8.21;100.00;99492.09;5051591;28;20049;-53
2023/10/26 03:02:39;;;;;;;19.30;14.35;;;;;;;8.19;100.00;99494.00;5051670;28;20072;-53
2023/10/26 03:05:08;;;;;;;19.27;14.10;;;;;;;8.14;100.00;99489.13;5052867;28;20037;-53
2023/10/26 03:07:37;;;;;;;19.40;14.18;;;;;;;8.14;100.00;99489.13;5054818;28;20049;-55
2023/10/26 03:10:06;;;;;;;21.50;15.10;;;;;;;8.09;100.00;99499.09;5052344;28;20103;-55
2023/10/26 03:12:34;;;;;;;19.92;14.07;;;;;;;8.07;100.00;99506.22;5054854;28;20068;-53
2023/10/26 03:15:02;;;;;;;21.17;15.20;;;;;;;8.05;100.00;99503.72;5055515;28;20067;-54
2023/10/26 03:17:31;;;;;;;20.92;15.05;;;;;;;8.03;100.00;99495.19;5052493;28;20056;-55
2023/10/26 03:20:00;;;;;;;19.38;14.52;;;;;;;8.04;100.00;99498.63;5053409;28;20081;-54
2023/10/26 03:22:29;;;;;;;21.10;14.20;;;;;;;8.02;100.00;99506.59;5055546;28;20083;-54
2023/10/26 03:24:57;;;;;;;20.27;14.70;;;;;;;8.02;100.00;99508.38;5055723;28;20064;-54
2023/10/26 03:27:25;;;;;;;23.48;16.98;;;;;;;8.01;100.00;99518.00;5055523;28;20045;-53
2023/10/26 03:29:54;;;;;;;23.85;15.80;;;;;;;8.01;100.00;99514.56;5052610;28;20037;-55
2023/10/26 03:32:22;;;;;;;24.00;16.27;;;;;;;8.03;100.00;99513.50;5053012;28;20115;-55
2023/10/26 03:39:04;;;;;;;19.70;14.65;;;;;;;8.01;100.00;99509.34;5088239;28;20056;-56
2023/10/26 03:41:33;;;;;;;25.55;16.40;;;;;;;8.00;100.00;99503.25;5095206;28;20044;-53
2023/10/26 03:44:02;;;;;;;22.23;15.93;;;;;;;8.02;100.00;99495.28;5095345;28;20044;-54
2023/10/26 03:46:30;;;;;;;22.33;16.20;;;;;;;8.02;100.00;99496.13;5095305;28;20091;-55
2023/10/26 03:48:59;;;;;;;23.08;15.88;;;;;;;8.02;100.00;99487.44;5095222;28;20047;-54
2023/10/26 03:51:28;;;;;;;22.55;16.20;;;;;;;8.02;100.00;99492.69;5095209;28;20038;-55
2023/10/26 03:53:57;;;;;;;22.45;15.38;;;;;;;8.00;100.00;99495.38;5094982;28;20127;-54
2023/10/26 03:56:27;;;;;;;22.80;15.65;;;;;;;8.01;100.00;99493.63;5093880;28;20583;-54
2023/10/26 03:58:55;;;;;;;23.13;16.55;;;;;;;8.03;100.00;99489.09;5092690;28;20050;-54
2023/10/26 04:01:24;;;;;;;22.67;15.75;;;;;;;8.01;100.00;99506.72;5093283;28;20048;-54
2023/10/26 04:03:52;;;;;;;23.05;15.93;;;;;;;8.01;100.00;99498.84;5091357;28;20067;-55
2023/10/26 04:06:21;;;;;;;21.48;14.85;;;;;;;8.04;100.00;99496.81;5089648;28;20533;-54
2023/10/26 04:08:49;;;;;;;21.25;15.55;;;;;;;8.01;100.00;99491.81;5094595;28;20422;-51
2023/10/26 04:11:18;;;;;;;23.40;15.77;;;;;;;8.05;100.00;99481.97;5094586;28;20105;-54
2023/10/26 04:13:48;;;;;;;24.65;15.07;;;;;;;8.02;100.00;99482.22;5093615;28;20421;-56
2023/10/26 04:16:17;;;;;;;22.08;15.57;;;;;;;7.99;100.00;99483.28;5093770;28;20047;-55
2023/10/26 04:18:45;;;;;;;23.35;15.45;;;;;;;7.98;100.00;99489.44;5091711;28;20472;-55
2023/10/26 04:21:14;;;;;;;23.77;15.63;;;;;;;7.94;100.00;99495.88;5091316;28;20066;-54
2023/10/26 04:23:42;;;;;;;23.02;15.43;;;;;;;7.95;100.00;99494.94;5090578;28;20040;-56
2023/10/26 04:26:12;;;;;;;20.75;15.30;;;;;;;8.01;100.00;99498.84;5091194;28;20055;-56
2023/10/26 04:28:40;;;;;;;22.02;15.50;;;;;;;7.98;100.00;99502.53;5094638;28;20112;-55
2023/10/26 04:31:21;;;;;;;22.48;15.57;;;;;;;8.00;100.00;99492.78;5094399;28;20106;-54
2023/10/26 04:33:50;;;;;;;19.98;14.35;;;;;;;7.97;100.00;99500.03;5094579;28;20771;-54
2023/10/26 04:36:20;;;;;;;21.63;14.50;;;;;;;7.93;100.00;99491.56;5094403;28;20036;-56
2023/10/26 04:38:48;;;;;;;19.23;14.82;;;;;;;7.89;100.00;99493.56;5092000;28;20056;-55
2023/10/26 04:41:17;;;;;;;19.77;15.15;;;;;;;7.83;100.00;99495.84;5090888;28;20052;-46
2023/10/26 04:43:45;;;;;;;22.13;13.88;;;;;;;7.80;100.00;99496.91;5093404;28;20048;-47
2023/10/26 04:46:13;;;;;;;19.98;14.43;;;;;;;7.75;100.00;99499.84;5093996;28;20044;-47
2023/10/26 04:48:43;;;;;;;18.58;13.32;;;;;;;7.72;100.00;99496.66;5093956;28;20467;-45
2023/10/26 04:51:11;;;;;;;19.67;13.60;;;;;;;7.65;100.00;99490.19;5093821;28;20136;-47
2023/10/26 04:53:40;;;;;;;18.63;14.50;;;;;;;7.55;100.00;99487.41;5093931;28;20051;-46
2023/10/26 04:56:10;;;;;;;22.67;14.55;;;;;;;7.57;100.00;99477.69;5092532;28;20067;-46
2023/10/26 04:58:39;;;;;;;22.55;15.52;;;;;;;7.53;100.00;99471.84;5094142;28;20040;-46
2023/10/26 05:01:07;;;;;;;21.98;15.15;;;;;;;7.53;100.00;99476.25;5093724;28;20517;-47
2023/10/26 05:03:37;;;;;;;21.40;14.73;;;;;;;7.50;100.00;99474.69;5093313;28;20054;-46
2023/10/26 05:06:07;;;;;;;21.85;15.02;;;;;;;7.46;100.00;99473.25;5093675;28;20048;-46
2023/10/26 05:08:35;;;;;;;21.20;15.02;;;;;;;7.43;100.00;99476.06;5092142;28;20090;-46
2023/10/26 05:11:04;;;;;;;30.98;15.65;;;;;;;7.39;100.00;99470.25;5093507;28;20499;-46
2023/10/26 05:13:32;;;;;;;23.80;15.07;;;;;;;7.37;100.00;99479.16;5093366;28;20048;-46
2023/10/26 05:16:03;;;;;;;26.23;15.85;;;;;;;7.34;100.00;99484.63;5092631;28;20044;-45
2023/10/26 05:18:32;;;;;;;38.05;16.23;;;;;;;7.33;100.00;99496.03;5089205;28;20043;-46
2023/10/26 05:21:00;;;;;;;60.85;17.10;;;;;;;7.31;100.00;99479.59;5092253;28;20783;-45
2023/10/26 05:23:30;;;;;;;21.20;15.02;;;;;;;7.29;100.00;99479.72;5093227;28;20090;-47
2023/10/26 05:25:58;;;;;;;28.55;16.23;;;;;;;7.30;100.00;99475.31;5091930;28;20184;-48
2023/10/26 05:28:26;;;;;;;27.00;15.88;;;;;;;7.28;100.00;99473.66;5093075;28;20066;-49
2023/10/26 05:30:54;;;;;;;25.88;14.95;;;;;;;7.28;100.00;99475.44;5093336;28;20044;-46
2023/10/26 05:33:23;;;;;;;21.52;15.82;;;;;;;7.30;100.00;99475.31;5093111;28;20411;-48
2023/10/26 05:35:51;;;;;;;23.67;16.00;;;;;;;7.30;100.00;99477.94;5092024;28;20117;-49
2023/10/26 05:38:21;;;;;;;38.75;16.17;;;;;;;7.29;100.00;99477.09;5091803;28;20052;-45
2023/10/26 05:40:53;;;;;;;44.58;16.83;;;;;;;7.29;100.00;99479.72;5089976;28;20048;-50
2023/10/26 05:43:21;;;;;;;67.10;17.52;;;;;;;7.28;100.00;99468.41;5090388;28;20507;-50
2023/10/26 05:45:53;;;;;;;46.25;17.50;;;;;;;7.30;100.00;99475.31;5092958;28;20048;-46
2023/10/26 05:48:23;;;;;;;49.00;16.92;;;;;;;7.32;100.00;99470.81;5092961;28;20576;-46
2023/10/26 05:50:51;;;;;;;51.05;17.45;;;;;;;7.31;100.00;99475.22;5092761;28;20051;-46
2023/10/26 05:53:19;;;;;;;36.15;16.77;;;;;;;7.35;100.00;99471.44;5092846;28;20052;-46
2023/10/26 05:55:57;;;;;;;43.55;16.65;;;;;;;7.38;100.00;99462.53;5091390;28;20040;-47
2023/10/26 05:58:26;;;;;;;23.40;16.83;;;;;;;7.40;100.00;99461.47;5089350;28;20163;-49
2023/10/26 06:00:54;;;;;;;26.38;15.52;;;;;;;7.43;100.00;99469.06;5092066;28;20040;-47
2023/10/26 06:03:22;;;;;;;31.73;16.80;;;;;;;7.44;100.00;99467.28;5091850;28;20448;-45
2023/10/26 06:05:50;;;;;;;31.30;16.55;;;;;;;7.45;100.00;99463.72;5089404;28;20121;-46
2023/10/26 06:08:18;;;;;;;28.88;17.23;;;;;;;7.45;100.00;99464.56;5089995;28;20395;-45
2023/10/26 06:10:46;;;;;;;33.50;17.65;;;;;;;7.44;100.00;99462.91;5092596;28;20062;-46
2023/10/26 06:13:19;;;;;;;34.88;17.52;;;;;;;7.45;100.00;99463.72;5092590;28;20048;-46
2023/10/26 06:15:47;;;;;;;31.55;17.42;;;;;;;7.46;100.00;99460.16;5092444;28;20051;-46
2023/10/26 06:18:15;;;;;;;30.52;17.30;;;;;;;7.48;100.00;99460.06;5092633;28;20040;-46
2023/10/26 06:20:44;;;;;;;140.00;21.40;;;;;;;7.49;100.00;99459.13;5090751;28;20487;-46
2023/10/26 06:23:12;;;;;;;91.65;19.48;;;;;;;7.48;100.00;99463.50;5089066;28;20043;-46
2023/10/26 06:25:40;;;;;;;96.93;18.95;;;;;;;7.49;100.00;99466.97;5089510;28;20043;-46
2023/10/26 06:28:08;;;;;;;30.02;16.45;;;;;;;7.50;100.00;99450.28;5092335;28;20055;-46
2023/10/26 06:30:38;;;;;;;51.40;18.70;;;;;;;7.49;100.00;99465.16;5092373;28;20541;-46
2023/10/26 06:33:06;;;;;;;50.97;17.35;;;;;;;7.51;100.00;99471.13;5092363;28;20971;-46
2023/10/26 06:35:37;;;;;;;41.17;16.45;;;;;;;7.53;100.00;99471.03;5092216;28;20046;-46
2023/10/26 06:38:06;;;;;;;26.60;16.85;;;;;;;7.54;100.00;99476.13;5091856;28;20064;-46
2023/10/26 06:40:34;;;;;;;26.50;16.88;;;;;;;7.54;100.00;99478.75;5087381;28;20055;-47
2023/10/26 06:43:02;;;;;;;29.80;16.95;;;;;;;7.56;100.00;99476.00;5089612;28;20380;-45
2023/10/26 06:45:30;;;;;;;29.90;17.48;;;;;;;7.59;100.00;99483.63;5089592;28;20055;-48
2023/10/26 06:47:59;;;;;;;25.95;16.88;;;;;;;7.63;100.00;99486.88;5091948;28;20052;-47
2023/10/26 06:50:28;;;;;;;29.40;15.77;;;;;;;7.66;100.00;99486.63;5090602;28;20071;-47
2023/10/26 06:52:59;;;;;;;50.22;16.17;;;;;;;7.65;100.00;99485.81;5092125;28;20071;-48
2023/10/26 06:55:27;;;;;;;34.17;16.23;;;;;;;7.65;100.00;99477.94;5091802;28;20422;-47
2023/10/26 06:57:58;;;;;;;55.72;18.13;;;;;;;7.69;100.00;99475.91;5091556;28;20090;-46
2023/10/26 07:00:26;;;;;;;31.02;16.88;;;;;;;7.73;100.00;99466.88;5088396;28;20076;-47
2023/10/26 07:02:55;;;;;;;28.45;15.95;;;;;;;7.73;100.00;99466.88;5090242;28;20048;-46
2023/10/26 07:05:24;;;;;;;38.40;16.42;;;;;;;7.75;100.00;99465.81;5091824;28;20449;-47
2023/10/26 07:07:52;;;;;;;24.45;15.20;;;;;;;7.75;100.00;99457.16;5088687;28;20052;-45
2023/10/26 07:10:20;;;;;;;28.33;15.20;;;;;;;7.77;100.00;99455.25;5088333;28;20372;-50
2023/10/26 07:12:48;;;;;;;22.38;14.35;;;;;;;7.79;100.00;99448.13;5091843;28;20056;-48
2023/10/26 07:15:17;;;;;;;24.02;15.05;;;;;;;7.82;100.00;99455.72;5089493;28;20563;-48
2023/10/26 07:17:45;;;;;;;41.00;15.50;;;;;;;7.84;100.00;99458.22;5088949;28;20054;-48
2023/10/26 07:20:13;;;;;;;38.80;14.45;;;;;;;7.84;100.00;99455.63;5088731;28;20071;-46
2023/10/26 07:22:47;;;;;;;28.42;14.73;;;;;;;7.79;100.00;99455.97;5088964;28;20487;-47
2023/10/26 07:25:15;;;;;;;28.95;14.88;;;;;;;7.75;100.00;99465.81;5090901;28;20153;-49
2023/10/26 07:27:44;;;;;;;28.08;14.50;;;;;;;7.75;100.00;99467.63;5088476;28;20072;-49
2023/10/26 07:30:13;;;;;;;22.05;15.32;;;;;;;7.81;100.00;99455.84;5090345;28;20042;-47
2023/10/26 07:32:41;;;;;;;23.42;14.73;;;;;;;7.83;100.00;99456.59;5091520;28;20123;-49
2023/10/26 07:35:09;;;;;;;18.45;13.50;;;;;;;7.85;100.00;99465.97;5091605;28;20051;-47
2023/10/26 07:37:38;;;;;;;54.08;15.18;;;;;;;7.91;100.00;99470.75;5091137;28;20555;-45
2023/10/26 07:40:09;;;;;;;42.28;14.10;;;;;;;7.86;100.00;99470.25;5091248;28;20051;-46
2023/10/26 07:42:57;;;;;;;44.17;13.48;;;;;;;7.86;100.00;99467.63;5091578;28;20489;-45
2023/10/26 07:45:25;;;;;;;25.42;14.05;;;;;;;7.88;100.00;99467.53;5091594;28;20044;-47
2023/10/26 07:47:55;;;;;;;37.15;13.82;;;;;;;7.92;100.00;99476.81;5091666;28;20048;-46
2023/10/26 07:50:29;;;;;;;18.73;13.48;;;;;;;7.90;100.00;99469.06;5091163;28;20051;-46
2023/10/26 07:52:57;;;;;;;26.52;13.70;;;;;;;7.95;100.00;99466.94;5092710;28;20418;-46
2023/10/26 07:55:27;;;;;;;25.15;14.85;;;;;;;7.98;100.00;99465.88;5089408;28;20441;-48
2023/10/26 07:57:55;;;;;;;24.52;13.50;;;;;;;8.05;100.00;99461.00;5094796;28;20044;-45
2023/10/26 08:00:23;;;;;;;36.85;14.23;;;;;;;8.07;100.00;99459.09;5094976;28;20063;-46
2023/10/26 08:02:51;;;;;;;24.38;13.82;;;;;;;8.09;100.00;99463.28;5093610;28;20059;-48
2023/10/26 08:05:20;;;;;;;28.98;15.02;;;;;;;8.15;100.00;99467.19;5091260;28;20044;-47
2023/10/26 08:07:48;;;;;;;59.10;15.05;;;;;;;8.18;100.00;99474.00;5092872;28;20060;-46
2023/10/26 08:10:16;;;;;;;33.63;15.63;;;;;;;8.18;100.00;99469.59;5090909;28;20043;-46
2023/10/26 08:12:46;;;;;;;24.73;14.18;;;;;;;8.19;100.00;99468.63;5090577;28;20059;-47
2023/10/26 08:15:14;;;;;;;23.77;15.35;;;;;;;8.24;100.00;99471.72;5090291;28;20052;-45
2023/10/26 08:18:05;;;;;;;53.88;16.50;;;;;;;8.33;100.00;99470.19;5093203;28;20064;-50
2023/10/26 08:20:37;;;;;;;39.97;15.07;;;;;;;8.35;100.00;99472.69;5094287;28;20051;-47
2023/10/26 08:23:05;;;;;;;46.22;15.90;;;;;;;8.42;100.00;99471.25;5091550;28;20459;-47
2023/10/26 08:25:36;;;;;;;20.15;14.57;;;;;;;8.43;100.00;99465.91;5091190;28;20044;-46
2023/10/26 08:28:06;;;;;;;40.15;14.60;;;;;;;8.50;100.00;99466.28;5093321;28;20105;-45
2023/10/26 08:30:34;;;;;;;28.23;13.77;;;;;;;8.61;100.00;99476.75;5094474;28;20048;-48
2023/10/26 08:33:04;;;;;;;22.15;14.30;;;;;;;8.63;100.00;99487.13;5093112;28;20044;-45
2023/10/26 08:35:33;;;;;;;23.88;14.75;;;;;;;8.66;100.00;99492.13;5094286;28;20052;-47
2023/10/26 08:38:01;;;;;;;28.50;14.73;;;;;;;8.76;100.00;99492.25;5092970;28;20078;-46
2023/10/26 08:40:29;;;;;;;26.90;15.77;;;;;;;8.79;100.00;99492.84;5092819;28;20514;-47
2023/10/26 08:43:00;;;;;;;24.92;14.88;;;;;;;8.71;100.00;99491.75;5091403;28;20044;-46
2023/10/26 08:45:31;;;;;;;20.98;15.00;;;;;;;8.76;100.00;99500.91;5093093;28;20076;-46
2023/10/26 08:48:00;;;;;;;20.67;15.02;;;;;;;8.83;100.00;99498.66;5092751;28;20059;-47
2023/10/26 08:50:28;;;;;;;20.83;15.65;;;;;;;8.89;100.00;99507.81;5093895;28;20040;-48
2023/10/26 08:52:56;;;;;;;22.65;15.75;;;;;;;8.90;100.00;99502.47;5094193;28;20118;-45
2023/10/26 08:55:24;;;;;;;27.02;15.75;;;;;;;8.91;100.00;99509.38;5093912;28;20165;-51
2023/10/26 08:57:54;;;;;;;31.30;14.13;;;;;;;8.91;100.00;99500.69;5094128;28;20143;-45
2023/10/26 09:00:23;;;;;;;32.53;14.95;;;;;;;8.94;100.00;99506.53;5093696;28;20040;-47
2023/10/26 09:02:52;;;;;;;21.50;15.05;;;;;;;8.93;100.00;99512.72;5088884;28;20040;-47
2023/10/26 09:05:21;;;;;;;21.58;14.85;;;;;;;9.01;100.00;99511.25;5091266;28;20051;-47
2023/10/26 09:07:49;;;;;;;24.63;14.82;;;;;;;9.01;100.00;99522.56;5093799;28;20055;-50
2023/10/26 09:10:30;;;;;;;22.58;15.13;;;;;;;9.01;100.00;99524.38;5093660;28;20055;-46
2023/10/26 09:13:00;;;;;;;24.73;15.57;;;;;;;9.05;100.00;99529.28;5092063;28;20060;-46
2023/10/26 09:15:29;;;;;;;20.73;15.35;;;;;;;8.96;100.00;99530.00;5090212;28;20062;-56
2023/10/26 09:18:00;;;;;;;25.35;15.07;;;;;;;9.00;100.00;99520.06;5091725;28;20049;-55
2023/10/26 09:20:28;;;;;;;20.45;14.90;;;;;;;9.05;100.00;99512.69;5093418;28;20141;-54
2023/10/26 09:22:59;;;;;;;26.83;14.55;;;;;;;9.07;100.00;99510.78;5093615;28;20048;-54
2023/10/26 09:25:30;;;;;;;22.45;15.30;;;;;;;9.09;100.00;99514.09;5093353;28;20055;-55
2023/10/26 09:28:03;;;;;;;20.83;15.27;;;;;;;9.15;100.00;99511.00;5093354;28;20044;-55
2023/10/26 09:30:33;;;;;;;21.73;16.48;;;;;;;9.23;100.00;99508.59;5092034;28;20048;-46
2023/10/26 09:33:04;;;;;;;22.75;15.68;;;;;;;9.26;100.00;99516.22;5090204;28;20040;-47
2023/10/26 09:35:34;;;;;;;22.23;15.32;;;;;;;9.27;100.00;99514.41;5092339;28;20044;-46
2023/10/26 09:38:03;;;;;;;21.77;15.65;;;;;;;9.29;100.00;99508.09;5092941;28;20097;-47
2023/10/26 09:40:31;;;;;;;22.25;16.02;;;;;;;9.33;100.00;99505.22;5092164;28;20412;-46
2023/10/26 09:42:59;;;;;;;22.60;16.42;;;;;;;9.33;100.00;99507.84;5090076;28;20064;-46
2023/10/26 09:45:27;;;;;;;23.02;16.33;;;;;;;9.33;100.00;99505.22;5091401;28;20048;-45
2023/10/26 09:47:56;;;;;;;20.92;15.90;;;;;;;9.28;100.00;99511.69;5091577;28;20135;-46
2023/10/26 09:50:26;;;;;;;23.63;16.27;;;;;;;9.33;100.00;99513.09;5092852;28;20044;-45
2023/10/26 09:52:56;;;;;;;22.83;16.98;;;;;;;9.34;100.00;99506.88;5092965;28;20471;-46
2023/10/26 09:55:26;;;;;;;23.10;17.05;;;;;;;9.38;100.00;99509.16;5092808;28;20051;-47
2023/10/26 09:58:00;;;;;;;24.25;16.35;;;;;;;9.40;100.00;99509.84;5092860;28;20046;-47
2023/10/26 10:00:32;;;;;;;25.38;17.95;;;;;;;9.46;100.00;99504.09;5092592;28;20044;-49
2023/10/26 10:03:10;;;;;;;27.95;19.25;;;;;;;9.50;100.00;99501.22;5092760;28;20048;-46
2023/10/26 10:05:41;;;;;;;24.60;17.38;;;;;;;9.57;100.00;99497.97;5092980;28;20043;-48
2023/10/26 10:08:09;;;;;;;24.90;18.15;;;;;;;9.58;100.00;99497.00;5092655;28;20403;-47
2023/10/26 10:10:58;;;;;;;25.77;17.73;;;;;;;9.64;100.00;99500.94;5092536;28;20071;-48
2023/10/26 10:13:37;;;;;;;24.83;17.02;;;;;;;9.68;100.00;99489.22;5091831;28;20105;-45
2023/10/26 10:16:05;;;;;;;24.20;17.50;;;;;;;9.74;100.00;99488.69;5092369;28;20048;-46
2023/10/26 10:18:33;;;;;;;24.00;17.65;;;;;;;9.81;100.00;99492.47;5092218;28;20540;-45
2023/10/26 10:21:35;;;;;;;25.33;18.23;;;;;;;9.88;100.00;99492.78;5089908;28;20507;-46
2023/10/26 10:24:04;;;;;;;26.48;17.60;;;;;;;9.93;100.00;99493.22;5087885;28;20074;-54
2023/10/26 10:27:08;;;;;;;23.17;16.63;;;;;;;9.98;100.00;99492.88;5092354;28;20499;-52
2023/10/26 10:29:36;;;;;;;23.65;16.98;;;;;;;9.94;100.00;99494.91;5092263;28;20060;-52
2023/10/26 10:32:04;;;;;;;25.73;19.17;;;;;;;9.97;100.00;99485.94;5088661;28;20044;-56
2023/10/26 10:34:44;;;;;;;24.35;17.77;;;;;;;10.00;100.00;99482.22;5088943;28;20043;-54
2023/10/26 10:37:21;;;;;;;23.70;17.42;;;;;;;10.00;100.00;99483.03;5092220;28;20052;-54
2023/10/26 10:40:15;;;;;;;26.58;17.58;;;;;;;10.06;100.00;99484.31;5092467;28;20122;-54
2023/10/26 10:42:48;;;;;;;27.60;18.05;;;;;;;10.04;100.00;99478.38;5092104;28;20048;-54
2023/10/26 10:45:17;;;;;;;26.65;17.42;;;;;;;10.09;100.00;99481.44;5092328;28;20465;-53
2023/10/26 10:47:47;;;;;;;23.52;17.98;;;;;;;10.13;100.00;99478.44;5092096;28;20048;-56
2023/10/26 10:50:20;;;;;;;25.73;17.42;;;;;;;10.18;100.00;99482.47;5092235;28;20063;-53
2023/10/26 10:52:53;;;;;;;;;;;;;;;10.21;100.00;99471.69;5089042;28;20042;-54
2023/10/26 10:55:24;;;;;;;23.75;17.17;;;;;;;10.35;100.00;99467.91;5087710;28;19950;-54
2023/10/26 10:57:57;;;;;;;25.43;18.43;;;;;;;10.35;100.00;99466.13;5091843;28;20043;-53
2023/10/26 11:00:25;;;;;;;;;;;;;;;10.40;100.00;99458.69;5089709;28;20052;-55
2023/10/26 11:02:57;;;;;;;25.40;17.95;;;;;;;10.42;100.00;99455.91;5088104;28;20464;-52
2023/10/26 11:05:37;;;;;;;26.10;17.63;;;;;;;10.56;100.00;99450.28;5090440;28;20052;-46
2023/10/26 11:08:07;;;;;;;23.80;17.70;;;;;;;10.61;100.00;99450.72;5091740;28;20459;-47
2023/10/26 11:10:36;;;;;;;23.85;17.20;;;;;;;10.73;100.00;99447.97;5089545;28;20093;-44
2023/10/26 11:13:05;;;;;;;20.75;15.68;;;;;;;10.74;100.00;99450.44;5088474;28;20052;-46
2023/10/26 11:15:34;;;;;;;21.60;15.95;;;;;;;10.78;100.00;99446.59;5090820;28;20066;-44
2023/10/26 11:18:04;;;;;;;21.75;16.30;;;;;;;10.77;100.00;99437.06;5091631;28;20044;-46
2023/10/26 11:20:37;;;;;;;23.75;17.23;;;;;;;10.72;100.00;99441.06;5091465;28;20048;-48
2023/10/26 11:23:08;;;;;;;22.15;16.63;;;;;;;10.72;100.00;99444.50;5091679;28;20115;-54
2023/10/26 11:25:37;;;;;;;20.90;16.40;;;;;;;10.77;100.00;99446.72;5090676;28;20170;-56
2023/10/26 11:28:06;;;;;;;23.55;15.23;;;;;;;10.77;100.00;99451.97;5093492;28;20503;-56
2023/10/26 11:30:46;;;;;;;22.33;16.70;;;;;;;10.72;100.00;99455.03;5095348;28;20123;-54
2023/10/26 11:33:34;;;;;;;22.17;15.95;;;;;;;10.69;100.00;99462.34;5095601;28;20048;-54